sensor_id;sensor_type;location;lat;lon;timestamp;pressure;altitude;pressure_sealevel;temperature;humidity
12775;BME280;6451;42.630;23.382;2024-01-06T00:00:46;94217.50;;;8.41;100.00
12775;BME280;6451;42.630;23.382;2024-01-06T00:03:14;94224.84;;;8.52;100.00
12775;BME280;6451;42.630;23.382;2024-01-06T00:05:41;94210.75;;;8.47;100.00
12775;BME280;6451;42.630;23.382;2024-01-06T00:08:08;94229.06;;;8.74;100.00
12775;BME280;6451;42.630;23.382;2024-01-06T00:10:36;94224.78;;;8.85;100.00
12775;BME280;6451;42.630;23.382;2024-01-06T00:13:05;94218.00;;;9.04;100.00
12775;BME280;6451;42.630;23.382;2024-01-06T00:15:32;94173.03;;;8.99;100.00
12775;BME280;6451;42.630;23.382;2024-01-06T00:17:59;94161.06;;;9.00;100.00
12775;BME280;6451;42.630;23.382;2024-01-06T00:20:25;94218.09;;;9.32;100.00
12775;BME280;6451;42.630;23.382;2024-01-06T00:22:52;94222.81;;;9.35;100.00
12775;BME280;6451;42.630;23.382;2024-01-06T00:25:22;94235.59;;;9.22;100.00
12775;BME280;6451;42.630;23.382;2024-01-06T00:27:48;94180.59;;;8.24;100.00
12775;BME280;6451;42.630;23.382;2024-01-06T00:30:17;94201.00;;;8.33;100.00
12775;BME280;6451;42.630;23.382;2024-01-06T00:32:44;94212.94;;;8.32;100.00
12775;BME280;6451;42.630;23.382;2024-01-06T00:35:10;94213.72;;;8.33;100.00
12775;BME280;6451;42.630;23.382;2024-01-06T00:37:40;94238.41;;;8.31;100.00
12775;BME280;6451;42.630;23.382;2024-01-06T00:40:07;94243.31;;;8.17;100.00
12775;BME280;6451;42.630;23.382;2024-01-06T00:42:36;94239.28;;;8.23;100.00
12775;BME280;6451;42.630;23.382;2024-01-06T00:45:06;94235.44;;;8.24;100.00
12775;BME280;6451;42.630;23.382;2024-01-06T00:47:35;94210.63;;;8.10;100.00
12775;BME280;6451;42.630;23.382;2024-01-06T00:50:02;94213.22;;;8.06;100.00
12775;BME280;6451;42.630;23.382;2024-01-06T00:52:29;94231.19;;;8.23;100.00
12775;BME280;6451;42.630;23.382;2024-01-06T00:54:56;94230.50;;;8.26;100.00
12775;BME280;6451;42.630;23.382;2024-01-06T00:57:23;94168.72;;;7.92;100.00
12775;BME280;6451;42.630;23.382;2024-01-06T00:59:50;94217.25;;;8.00;100.00
12775;BME280;6451;42.630;23.382;2024-01-06T01:02:17;94225.16;;;8.05;100.00
12775;BME280;6451;42.630;23.382;2024-01-06T01:04:45;94228.41;;;7.99;100.00
12775;BME280;6451;42.630;23.382;2024-01-06T01:07:13;94192.44;;;7.86;100.00
12775;BME280;6451;42.630;23.382;2024-01-06T01:09:39;94232.25;;;8.10;100.00
12775;BME280;6451;42.630;23.382;2024-01-06T01:12:07;94194.25;;;7.94;100.00
12775;BME280;6451;42.630;23.382;2024-01-06T01:14:35;94201.63;;;8.06;100.00
12775;BME280;6451;42.630;23.382;2024-01-06T01:17:02;94226.06;;;8.09;100.00
12775;BME280;6451;42.630;23.382;2024-01-06T01:19:30;94218.88;;;8.14;100.00
12775;BME280;6451;42.630;23.382;2024-01-06T01:22:01;94195.44;;;8.05;100.00
12775;BME280;6451;42.630;23.382;2024-01-06T01:24:29;94175.31;;;7.82;100.00
12775;BME280;6451;42.630;23.382;2024-01-06T01:26:56;94216.00;;;7.98;100.00
12775;BME280;6451;42.630;23.382;2024-01-06T01:29:23;94202.50;;;7.98;100.00
12775;BME280;6451;42.630;23.382;2024-01-06T01:31:50;94195.38;;;7.93;100.00
12775;BME280;6451;42.630;23.382;2024-01-06T01:34:17;94177.19;;;7.69;100.00
12775;BME280;6451;42.630;23.382;2024-01-06T01:36:45;94192.06;;;7.55;100.00
12775;BME280;6451;42.630;23.382;2024-01-06T01:39:13;94201.06;;;7.59;100.00
12775;BME280;6451;42.630;23.382;2024-01-06T01:41:41;94197.31;;;7.72;100.00
12775;BME280;6451;42.630;23.382;2024-01-06T01:44:07;94195.56;;;7.76;100.00
12775;BME280;6451;42.630;23.382;2024-01-06T01:46:35;94177.63;;;7.71;100.00
12775;BME280;6451;42.630;23.382;2024-01-06T01:49:04;94152.09;;;7.48;100.00
12775;BME280;6451;42.630;23.382;2024-01-06T01:51:34;94174.41;;;7.78;100.00
12775;BME280;6451;42.630;23.382;2024-01-06T01:54:02;94163.75;;;7.61;100.00
12775;BME280;6451;42.630;23.382;2024-01-06T01:56:32;94165.06;;;7.88;100.00
12775;BME280;6451;42.630;23.382;2024-01-06T01:59:01;94174.34;;;7.99;100.00
12775;BME280;6451;42.630;23.382;2024-01-06T02:01:30;94142.56;;;7.84;100.00
12775;BME280;6451;42.630;23.382;2024-01-06T02:03:58;94180.81;;;7.32;100.00
12775;BME280;6451;42.630;23.382;2024-01-06T02:06:25;94175.88;;;7.34;100.00
12775;BME280;6451;42.630;23.382;2024-01-06T02:08:52;94143.38;;;7.09;100.00
12775;BME280;6451;42.630;23.382;2024-01-06T02:11:20;94171.78;;;7.28;100.00
12775;BME280;6451;42.630;23.382;2024-01-06T02:13:49;94122.22;;;7.11;100.00
12775;BME280;6451;42.630;23.382;2024-01-06T02:16:19;94109.88;;;7.31;100.00
12775;BME280;6451;42.630;23.382;2024-01-06T02:18:46;94149.28;;;7.23;100.00
12775;BME280;6451;42.630;23.382;2024-01-06T02:21:13;94148.16;;;7.45;100.00
12775;BME280;6451;42.630;23.382;2024-01-06T02:23:42;94157.56;;;7.18;100.00
12775;BME280;6451;42.630;23.382;2024-01-06T02:26:10;94139.75;;;7.26;100.00
12775;BME280;6451;42.630;23.382;2024-01-06T02:28:38;94145.84;;;7.35;100.00
12775;BME280;6451;42.630;23.382;2024-01-06T02:31:06;94099.94;;;7.02;100.00
12775;BME280;6451;42.630;23.382;2024-01-06T02:33:34;94018.44;;;6.55;100.00
12775;BME280;6451;42.630;23.382;2024-01-06T02:36:01;94132.44;;;7.27;100.00
12775;BME280;6451;42.630;23.382;2024-01-06T02:38:29;94041.53;;;6.64;100.00
12775;BME280;6451;42.630;23.382;2024-01-06T02:40:58;94100.66;;;6.90;100.00
12775;BME280;6451;42.630;23.382;2024-01-06T02:43:26;94115.72;;;7.12;100.00
12775;BME280;6451;42.630;23.382;2024-01-06T02:45:55;94119.53;;;7.11;100.00
12775;BME280;6451;42.630;23.382;2024-01-06T02:48:25;94129.63;;;7.23;100.00
12775;BME280;6451;42.630;23.382;2024-01-06T02:50:55;94115.97;;;7.19;100.00
12775;BME280;6451;42.630;23.382;2024-01-06T02:53:22;94033.78;;;6.63;100.00
12775;BME280;6451;42.630;23.382;2024-01-06T02:55:52;94124.47;;;7.09;100.00
12775;BME280;6451;42.630;23.382;2024-01-06T02:58:24;94086.63;;;6.97;100.00
12775;BME280;6451;42.630;23.382;2024-01-06T03:00:51;94072.59;;;6.91;100.00
12775;BME280;6451;42.630;23.382;2024-01-06T03:03:18;94045.00;;;6.65;100.00
12775;BME280;6451;42.630;23.382;2024-01-06T03:05:45;94058.09;;;6.54;100.00
12775;BME280;6451;42.630;23.382;2024-01-06T03:08:14;93920.09;;;5.69;100.00
12775;BME280;6451;42.630;23.382;2024-01-06T03:10:42;94068.34;;;6.82;100.00
12775;BME280;6451;42.630;23.382;2024-01-06T03:13:09;94087.03;;;6.87;100.00
12775;BME280;6451;42.630;23.382;2024-01-06T03:15:37;94037.38;;;6.67;100.00
12775;BME280;6451;42.630;23.382;2024-01-06T03:18:04;94095.13;;;7.08;100.00
12775;BME280;6451;42.630;23.382;2024-01-06T03:20:31;94086.38;;;7.11;100.00
12775;BME280;6451;42.630;23.382;2024-01-06T03:22:58;94067.63;;;7.14;100.00
12775;BME280;6451;42.630;23.382;2024-01-06T03:25:26;94096.78;;;7.21;100.00
12775;BME280;6451;42.630;23.382;2024-01-06T03:27:54;94041.38;;;7.03;100.00
12775;BME280;6451;42.630;23.382;2024-01-06T03:30:21;94101.13;;;7.13;100.00
12775;BME280;6451;42.630;23.382;2024-01-06T03:32:49;94096.03;;;7.33;100.00
12775;BME280;6451;42.630;23.382;2024-01-06T03:35:21;94082.19;;;7.34;100.00
12775;BME280;6451;42.630;23.382;2024-01-06T03:37:49;94084.78;;;7.31;100.00
12775;BME280;6451;42.630;23.382;2024-01-06T03:40:16;94075.56;;;7.32;100.00
12775;BME280;6451;42.630;23.382;2024-01-06T03:42:42;94040.13;;;7.00;100.00
12775;BME280;6451;42.630;23.382;2024-01-06T03:45:10;94081.06;;;7.35;100.00
12775;BME280;6451;42.630;23.382;2024-01-06T03:47:37;94070.63;;;7.13;100.00
12775;BME280;6451;42.630;23.382;2024-01-06T03:50:06;94080.44;;;7.17;100.00
12775;BME280;6451;42.630;23.382;2024-01-06T03:52:33;94079.84;;;7.12;100.00
12775;BME280;6451;42.630;23.382;2024-01-06T03:55:00;94062.25;;;7.14;100.00
12775;BME280;6451;42.630;23.382;2024-01-06T03:57:28;94071.94;;;7.28;100.00
12775;BME280;6451;42.630;23.382;2024-01-06T03:59:57;94079.13;;;7.23;100.00
12775;BME280;6451;42.630;23.382;2024-01-06T04:02:24;94077.13;;;7.33;100.00
12775;BME280;6451;42.630;23.382;2024-01-06T04:04:52;94079.50;;;7.34;100.00
12775;BME280;6451;42.630;23.382;2024-01-06T04:07:21;94055.88;;;6.98;100.00
12775;BME280;6451;42.630;23.382;2024-01-06T04:09:48;94072.28;;;7.05;100.00
12775;BME280;6451;42.630;23.382;2024-01-06T04:12:15;94084.00;;;7.09;100.00
12775;BME280;6451;42.630;23.382;2024-01-06T04:14:42;94070.53;;;7.09;100.00
12775;BME280;6451;42.630;23.382;2024-01-06T04:17:09;94080.06;;;7.07;100.00
12775;BME280;6451;42.630;23.382;2024-01-06T04:19:35;94062.75;;;7.08;100.00
12775;BME280;6451;42.630;23.382;2024-01-06T04:22:02;94077.03;;;7.08;100.00
12775;BME280;6451;42.630;23.382;2024-01-06T04:24:34;94074.53;;;7.24;100.00
12775;BME280;6451;42.630;23.382;2024-01-06T04:27:03;94071.47;;;7.13;100.00
12775;BME280;6451;42.630;23.382;2024-01-06T04:29:30;94069.13;;;7.03;100.00
12775;BME280;6451;42.630;23.382;2024-01-06T04:31:57;94058.81;;;6.63;100.00
12775;BME280;6451;42.630;23.382;2024-01-06T04:34:24;94072.56;;;6.71;100.00
12775;BME280;6451;42.630;23.382;2024-01-06T04:36:51;94095.19;;;6.78;100.00
12775;BME280;6451;42.630;23.382;2024-01-06T04:39:18;94081.50;;;6.62;100.00
12775;BME280;6451;42.630;23.382;2024-01-06T04:41:47;94093.41;;;6.82;100.00
12775;BME280;6451;42.630;23.382;2024-01-06T04:44:14;94068.03;;;6.62;100.00
12775;BME280;6451;42.630;23.382;2024-01-06T04:46:40;94087.44;;;6.97;100.00
12775;BME280;6451;42.630;23.382;2024-01-06T04:49:07;94077.34;;;6.65;100.00
12775;BME280;6451;42.630;23.382;2024-01-06T04:51:34;94091.66;;;6.86;100.00
12775;BME280;6451;42.630;23.382;2024-01-06T04:54:01;94104.16;;;6.91;100.00
12775;BME280;6451;42.630;23.382;2024-01-06T04:56:28;94090.44;;;6.54;100.00
12775;BME280;6451;42.630;23.382;2024-01-06T04:58:56;94099.81;;;6.48;100.00
12775;BME280;6451;42.630;23.382;2024-01-06T05:01:24;94098.75;;;6.70;100.00
12775;BME280;6451;42.630;23.382;2024-01-06T05:03:51;94090.19;;;6.68;100.00
12775;BME280;6451;42.630;23.382;2024-01-06T05:06:18;94095.94;;;6.58;100.00
12775;BME280;6451;42.630;23.382;2024-01-06T05:08:45;94094.47;;;6.69;100.00
12775;BME280;6451;42.630;23.382;2024-01-06T05:11:12;94057.94;;;6.51;100.00
12775;BME280;6451;42.630;23.382;2024-01-06T05:13:39;94079.06;;;6.69;100.00
12775;BME280;6451;42.630;23.382;2024-01-06T05:16:08;94056.16;;;6.34;100.00
12775;BME280;6451;42.630;23.382;2024-01-06T05:18:35;94095.56;;;6.47;100.00
12775;BME280;6451;42.630;23.382;2024-01-06T05:21:04;94076.41;;;6.40;100.00
12775;BME280;6451;42.630;23.382;2024-01-06T05:23:30;94078.97;;;6.36;100.00
12775;BME280;6451;42.630;23.382;2024-01-06T05:25:59;94049.63;;;6.35;100.00
12775;BME280;6451;42.630;23.382;2024-01-06T05:28:26;94052.16;;;6.10;100.00
12775;BME280;6451;42.630;23.382;2024-01-06T05:30:53;94048.53;;;6.06;100.00
12775;BME280;6451;42.630;23.382;2024-01-06T05:33:21;94050.75;;;6.04;100.00
12775;BME280;6451;42.630;23.382;2024-01-06T05:35:48;94056.81;;;6.31;100.00
12775;BME280;6451;42.630;23.382;2024-01-06T05:38:15;94000.47;;;6.17;100.00
12775;BME280;6451;42.630;23.382;2024-01-06T05:40:44;94060.94;;;6.28;100.00
12775;BME280;6451;42.630;23.382;2024-01-06T05:43:14;94052.25;;;6.23;100.00
12775;BME280;6451;42.630;23.382;2024-01-06T05:45:42;94044.84;;;6.40;100.00
12775;BME280;6451;42.630;23.382;2024-01-06T05:48:09;94046.66;;;6.28;100.00
12775;BME280;6451;42.630;23.382;2024-01-06T05:50:38;94001.56;;;5.86;100.00
12775;BME280;6451;42.630;23.382;2024-01-06T05:53:06;94054.00;;;6.19;100.00
12775;BME280;6451;42.630;23.382;2024-01-06T05:55:33;94007.06;;;5.90;100.00
12775;BME280;6451;42.630;23.382;2024-01-06T05:58:06;94050.31;;;6.32;100.00
12775;BME280;6451;42.630;23.382;2024-01-06T06:00:36;94042.03;;;6.07;100.00
12775;BME280;6451;42.630;23.382;2024-01-06T06:03:04;94024.88;;;6.12;100.00
12775;BME280;6451;42.630;23.382;2024-01-06T06:05:33;94038.00;;;6.22;100.00
12775;BME280;6451;42.630;23.382;2024-01-06T06:08:01;94045.66;;;6.11;100.00
12775;BME280;6451;42.630;23.382;2024-01-06T06:10:28;94024.38;;;6.19;100.00
12775;BME280;6451;42.630;23.382;2024-01-06T06:13:06;94023.13;;;6.46;100.00
12775;BME280;6451;42.630;23.382;2024-01-06T06:15:37;94045.72;;;6.53;100.00
12775;BME280;6451;42.630;23.382;2024-01-06T06:18:04;94017.44;;;6.59;100.00
12775;BME280;6451;42.630;23.382;2024-01-06T06:20:32;94045.78;;;6.65;100.00
12775;BME280;6451;42.630;23.382;2024-01-06T06:23:00;94030.47;;;6.57;100.00
12775;BME280;6451;42.630;23.382;2024-01-06T06:25:27;94038.63;;;6.69;100.00
12775;BME280;6451;42.630;23.382;2024-01-06T06:30:29;94043.00;;;6.83;100.00
12775;BME280;6451;42.630;23.382;2024-01-06T06:32:57;94008.22;;;6.81;100.00
12775;BME280;6451;42.630;23.382;2024-01-06T06:35:24;94033.81;;;6.96;100.00
12775;BME280;6451;42.630;23.382;2024-01-06T06:37:51;94030.97;;;7.13;100.00
12775;BME280;6451;42.630;23.382;2024-01-06T06:40:19;94027.59;;;6.83;100.00
12775;BME280;6451;42.630;23.382;2024-01-06T06:42:46;94023.31;;;6.61;100.00
12775;BME280;6451;42.630;23.382;2024-01-06T06:45:13;94048.13;;;6.76;100.00
12775;BME280;6451;42.630;23.382;2024-01-06T06:47:40;94053.44;;;6.63;100.00
12775;BME280;6451;42.630;23.382;2024-01-06T06:50:07;94028.38;;;6.63;100.00
12775;BME280;6451;42.630;23.382;2024-01-06T06:52:35;94049.28;;;6.66;100.00
12775;BME280;6451;42.630;23.382;2024-01-06T06:55:02;94050.81;;;6.76;100.00
12775;BME280;6451;42.630;23.382;2024-01-06T06:57:30;94036.28;;;6.68;100.00
12775;BME280;6451;42.630;23.382;2024-01-06T06:59:58;94025.50;;;6.68;100.00
12775;BME280;6451;42.630;23.382;2024-01-06T07:02:25;94040.88;;;6.67;100.00
12775;BME280;6451;42.630;23.382;2024-01-06T07:04:52;94039.25;;;6.75;100.00
12775;BME280;6451;42.630;23.382;2024-01-06T07:07:19;94055.06;;;6.97;100.00
12775;BME280;6451;42.630;23.382;2024-01-06T07:09:46;94001.88;;;6.65;100.00
12775;BME280;6451;42.630;23.382;2024-01-06T07:12:14;94050.72;;;7.05;100.00
12775;BME280;6451;42.630;23.382;2024-01-06T07:14:42;93995.53;;;6.82;100.00
12775;BME280;6451;42.630;23.382;2024-01-06T07:17:10;94041.53;;;7.06;100.00
12775;BME280;6451;42.630;23.382;2024-01-06T07:19:37;94017.94;;;7.15;100.00
12775;BME280;6451;42.630;23.382;2024-01-06T07:22:04;94022.88;;;7.46;100.00
12775;BME280;6451;42.630;23.382;2024-01-06T07:24:31;94049.38;;;7.77;100.00
12775;BME280;6451;42.630;23.382;2024-01-06T07:26:58;94045.34;;;7.84;100.00
12775;BME280;6451;42.630;23.382;2024-01-06T07:29:27;94051.88;;;7.83;100.00
12775;BME280;6451;42.630;23.382;2024-01-06T07:31:55;94051.06;;;7.82;100.00
12775;BME280;6451;42.630;23.382;2024-01-06T07:34:22;94048.94;;;8.00;100.00
12775;BME280;6451;42.630;23.382;2024-01-06T07:36:50;94043.88;;;7.98;100.00
12775;BME280;6451;42.630;23.382;2024-01-06T07:39:17;94016.16;;;7.65;100.00
12775;BME280;6451;42.630;23.382;2024-01-06T07:41:44;94041.53;;;8.09;100.00
12775;BME280;6451;42.630;23.382;2024-01-06T07:44:11;94030.38;;;8.11;100.00
12775;BME280;6451;42.630;23.382;2024-01-06T07:46:39;94035.31;;;7.84;100.00
12775;BME280;6451;42.630;23.382;2024-01-06T07:49:07;94021.13;;;7.87;100.00
12775;BME280;6451;42.630;23.382;2024-01-06T07:51:34;94006.94;;;7.78;100.00
12775;BME280;6451;42.630;23.382;2024-01-06T07:54:01;94022.38;;;8.14;100.00
12775;BME280;6451;42.630;23.382;2024-01-06T07:56:28;94039.94;;;8.32;100.00
12775;BME280;6451;42.630;23.382;2024-01-06T07:58:55;94037.00;;;8.25;100.00
12775;BME280;6451;42.630;23.382;2024-01-06T08:01:22;94020.13;;;8.16;100.00
12775;BME280;6451;42.630;23.382;2024-01-06T08:03:48;94052.69;;;8.44;100.00
12775;BME280;6451;42.630;23.382;2024-01-06T08:06:18;94003.00;;;8.12;100.00
12775;BME280;6451;42.630;23.382;2024-01-06T08:08:45;94050.78;;;8.45;100.00
12775;BME280;6451;42.630;23.382;2024-01-06T08:11:13;93998.59;;;8.20;100.00
12775;BME280;6451;42.630;23.382;2024-01-06T08:13:39;94046.72;;;8.39;100.00
12775;BME280;6451;42.630;23.382;2024-01-06T08:16:06;93987.00;;;8.19;100.00
12775;BME280;6451;42.630;23.382;2024-01-06T08:18:33;94010.88;;;8.17;100.00
12775;BME280;6451;42.630;23.382;2024-01-06T08:21:00;93954.97;;;7.69;100.00
12775;BME280;6451;42.630;23.382;2024-01-06T08:23:29;94009.75;;;7.81;100.00
12775;BME280;6451;42.630;23.382;2024-01-06T08:25:56;93969.47;;;8.01;100.00
12775;BME280;6451;42.630;23.382;2024-01-06T08:28:23;94040.41;;;8.22;100.00
12775;BME280;6451;42.630;23.382;2024-01-06T08:30:50;94039.75;;;8.38;100.00
12775;BME280;6451;42.630;23.382;2024-01-06T08:33:17;94042.41;;;8.74;100.00
12775;BME280;6451;42.630;23.382;2024-01-06T08:35:44;94049.84;;;8.77;100.00
12775;BME280;6451;42.630;23.382;2024-01-06T08:38:10;94012.84;;;8.81;100.00
12775;BME280;6451;42.630;23.382;2024-01-06T08:40:39;94043.59;;;8.89;100.00
12775;BME280;6451;42.630;23.382;2024-01-06T08:43:07;94027.34;;;8.89;100.00
12775;BME280;6451;42.630;23.382;2024-01-06T08:45:34;94007.88;;;8.83;100.00
12775;BME280;6451;42.630;23.382;2024-01-06T08:48:01;94032.13;;;8.80;100.00
12775;BME280;6451;42.630;23.382;2024-01-06T08:50:28;94009.38;;;9.09;100.00
12775;BME280;6451;42.630;23.382;2024-01-06T08:52:55;94002.38;;;9.08;100.00
12775;BME280;6451;42.630;23.382;2024-01-06T08:55:22;94036.97;;;9.42;100.00
12775;BME280;6451;42.630;23.382;2024-01-06T08:57:51;93977.31;;;9.11;100.00
12775;BME280;6451;42.630;23.382;2024-01-06T09:00:18;93977.09;;;9.16;100.00
12775;BME280;6451;42.630;23.382;2024-01-06T09:02:45;94032.91;;;9.64;100.00
12775;BME280;6451;42.630;23.382;2024-01-06T09:05:12;93962.00;;;9.15;100.00
12775;BME280;6451;42.630;23.382;2024-01-06T09:07:40;94006.59;;;9.49;100.00
12775;BME280;6451;42.630;23.382;2024-01-06T09:10:07;94012.97;;;9.57;100.00
12775;BME280;6451;42.630;23.382;2024-01-06T09:12:35;94013.69;;;9.54;100.00
12775;BME280;6451;42.630;23.382;2024-01-06T09:15:04;94008.50;;;9.48;100.00
12775;BME280;6451;42.630;23.382;2024-01-06T09:17:32;93979.22;;;9.23;100.00
12775;BME280;6451;42.630;23.382;2024-01-06T09:20:01;93998.56;;;9.53;100.00
12775;BME280;6451;42.630;23.382;2024-01-06T09:22:28;93996.03;;;9.44;100.00
12775;BME280;6451;42.630;23.382;2024-01-06T09:24:55;93959.31;;;9.46;100.00
12775;BME280;6451;42.630;23.382;2024-01-06T09:27:22;93922.94;;;9.00;100.00
12775;BME280;6451;42.630;23.382;2024-01-06T09:29:52;93982.31;;;9.68;100.00
12775;BME280;6451;42.630;23.382;2024-01-06T09:32:20;93980.03;;;9.55;100.00
12775;BME280;6451;42.630;23.382;2024-01-06T09:35:07;93958.44;;;9.42;100.00
12775;BME280;6451;42.630;23.382;2024-01-06T09:37:34;93976.81;;;9.65;100.00
12775;BME280;6451;42.630;23.382;2024-01-06T09:40:02;93947.28;;;9.60;100.00
12775;BME280;6451;42.630;23.382;2024-01-06T09:42:30;93977.44;;;9.74;100.00
12775;BME280;6451;42.630;23.382;2024-01-06T09:44:57;93941.69;;;9.53;100.00
12775;BME280;6451;42.630;23.382;2024-01-06T09:47:27;93829.38;;;8.55;100.00
12775;BME280;6451;42.630;23.382;2024-01-06T09:49:59;93952.09;;;9.66;100.00
12775;BME280;6451;42.630;23.382;2024-01-06T09:52:56;93930.31;;;9.79;100.00
12775;BME280;6451;42.630;23.382;2024-01-06T09:55:31;93919.91;;;9.81;100.00
12775;BME280;6451;42.630;23.382;2024-01-06T09:57:59;93947.94;;;10.04;100.00
12775;BME280;6451;42.630;23.382;2024-01-06T10:00:28;93868.09;;;9.51;100.00
12775;BME280;6451;42.630;23.382;2024-01-06T10:03:00;93933.91;;;10.34;100.00
12775;BME280;6451;42.630;23.382;2024-01-06T10:05:35;93847.00;;;9.91;100.00
12775;BME280;6451;42.630;23.382;2024-01-06T10:10:41;93924.06;;;10.10;100.00
12775;BME280;6451;42.630;23.382;2024-01-06T10:13:08;93906.34;;;9.96;100.00
12775;BME280;6451;42.630;23.382;2024-01-06T10:15:36;93904.97;;;9.87;100.00
12775;BME280;6451;42.630;23.382;2024-01-06T10:18:05;93905.88;;;9.75;100.00
12775;BME280;6451;42.630;23.382;2024-01-06T10:20:34;93890.59;;;9.51;100.00
12775;BME280;6451;42.630;23.382;2024-01-06T10:23:05;93905.06;;;9.74;100.00
12775;BME280;6451;42.630;23.382;2024-01-06T10:25:32;93712.38;;;8.43;100.00
12775;BME280;6451;42.630;23.382;2024-01-06T10:28:00;93895.72;;;9.72;100.00
12775;BME280;6451;42.630;23.382;2024-01-06T10:30:51;93797.50;;;9.08;100.00
12775;BME280;6451;42.630;23.382;2024-01-06T10:33:22;93754.72;;;9.14;100.00
12775;BME280;6451;42.630;23.382;2024-01-06T10:35:52;93902.56;;;10.01;100.00
12775;BME280;6451;42.630;23.382;2024-01-06T10:38:21;93883.50;;;9.62;100.00
12775;BME280;6451;42.630;23.382;2024-01-06T10:41:00;93898.66;;;9.98;100.00
12775;BME280;6451;42.630;23.382;2024-01-06T10:43:33;93843.44;;;9.71;100.00
12775;BME280;6451;42.630;23.382;2024-01-06T10:46:04;93804.97;;;9.46;100.00
12775;BME280;6451;42.630;23.382;2024-01-06T10:48:34;93854.06;;;9.61;100.00
12775;BME280;6451;42.630;23.382;2024-01-06T10:51:04;93873.44;;;9.63;100.00
12775;BME280;6451;42.630;23.382;2024-01-06T10:53:33;93869.94;;;9.78;100.00
12775;BME280;6451;42.630;23.382;2024-01-06T10:56:03;93787.16;;;9.45;100.00
12775;BME280;6451;42.630;23.382;2024-01-06T10:58:45;93770.09;;;9.61;100.00
12775;BME280;6451;42.630;23.382;2024-01-06T11:01:21;93813.69;;;9.56;100.00
12775;BME280;6451;42.630;23.382;2024-01-06T11:04:02;93847.16;;;9.98;100.00
12775;BME280;6451;42.630;23.382;2024-01-06T11:06:42;93846.25;;;10.10;100.00
12775;BME280;6451;42.630;23.382;2024-01-06T11:09:18;93600.75;;;7.95;100.00
12775;BME280;6451;42.630;23.382;2024-01-06T11:11:47;93815.38;;;9.80;100.00
12775;BME280;6451;42.630;23.382;2024-01-06T11:14:23;93716.91;;;9.17;100.00
12775;BME280;6451;42.630;23.382;2024-01-06T11:16:51;93803.59;;;9.72;100.00
12775;BME280;6451;42.630;23.382;2024-01-06T11:19:45;93807.88;;;10.08;100.00
12775;BME280;6451;42.630;23.382;2024-01-06T11:22:25;93775.63;;;10.03;100.00
12775;BME280;6451;42.630;23.382;2024-01-06T11:24:55;93748.44;;;9.80;100.00
12775;BME280;6451;42.630;23.382;2024-01-06T11:27:29;93778.78;;;10.05;100.00
12775;BME280;6451;42.630;23.382;2024-01-06T11:30:03;93767.16;;;10.43;100.00
12775;BME280;6451;42.630;23.382;2024-01-06T11:32:35;93802.56;;;10.73;100.00
12775;BME280;6451;42.630;23.382;2024-01-06T11:35:10;93695.75;;;9.97;100.00
12775;BME280;6451;42.630;23.382;2024-01-06T11:38:03;93786.84;;;11.28;100.00
12775;BME280;6451;42.630;23.382;2024-01-06T11:40:36;93782.22;;;11.29;100.00
12775;BME280;6451;42.630;23.382;2024-01-06T11:43:14;93645.19;;;10.73;100.00
12775;BME280;6451;42.630;23.382;2024-01-06T11:45:54;93763.75;;;11.94;100.00
12775;BME280;6451;42.630;23.382;2024-01-06T11:48:33;93769.66;;;12.00;100.00
12775;BME280;6451;42.630;23.382;2024-01-06T11:51:07;93718.06;;;11.77;100.00
12775;BME280;6451;42.630;23.382;2024-01-06T11:53:35;93744.97;;;11.29;100.00
12775;BME280;6451;42.630;23.382;2024-01-06T11:56:04;93673.38;;;11.14;100.00
12775;BME280;6451;42.630;23.382;2024-01-06T11:58:37;93647.34;;;11.40;99.27
12775;BME280;6451;42.630;23.382;2024-01-06T12:01:12;93729.34;;;12.06;100.00
12775;BME280;6451;42.630;23.382;2024-01-06T12:03:42;93684.81;;;11.84;100.00
12775;BME280;6451;42.630;23.382;2024-01-06T12:06:11;93724.16;;;12.27;100.00
12775;BME280;6451;42.630;23.382;2024-01-06T12:08:44;93595.41;;;11.15;100.00
12775;BME280;6451;42.630;23.382;2024-01-06T12:11:23;93683.78;;;11.65;100.00
12775;BME280;6451;42.630;23.382;2024-01-06T12:13:59;93697.44;;;12.03;100.00
12775;BME280;6451;42.630;23.382;2024-01-06T12:16:31;93696.56;;;11.95;100.00
12775;BME280;6451;42.630;23.382;2024-01-06T12:19:06;93689.53;;;11.60;100.00
12775;BME280;6451;42.630;23.382;2024-01-06T12:21:47;93656.34;;;11.48;100.00
12775;BME280;6451;42.630;23.382;2024-01-06T12:24:24;93648.28;;;11.51;100.00
12775;BME280;6451;42.630;23.382;2024-01-06T12:27:03;93696.91;;;11.60;100.00
12775;BME280;6451;42.630;23.382;2024-01-06T12:29:31;93707.13;;;11.70;100.00
12775;BME280;6451;42.630;23.382;2024-01-06T12:32:04;93690.09;;;11.73;100.00
12775;BME280;6451;42.630;23.382;2024-01-06T12:34:34;93734.97;;;11.63;100.00
12775;BME280;6451;42.630;23.382;2024-01-06T12:37:04;93713.06;;;11.79;100.00
12775;BME280;6451;42.630;23.382;2024-01-06T12:39:35;93715.75;;;11.76;100.00
12775;BME280;6451;42.630;23.382;2024-01-06T12:42:02;93691.72;;;11.51;100.00
12775;BME280;6451;42.630;23.382;2024-01-06T12:44:29;93708.84;;;11.55;100.00
12775;BME280;6451;42.630;23.382;2024-01-06T12:46:58;93689.44;;;11.27;100.00
12775;BME280;6451;42.630;23.382;2024-01-06T12:49:25;93697.50;;;11.76;100.00
12775;BME280;6451;42.630;23.382;2024-01-06T12:51:52;93688.78;;;11.90;100.00
12775;BME280;6451;42.630;23.382;2024-01-06T12:54:20;93694.56;;;11.88;100.00
12775;BME280;6451;42.630;23.382;2024-01-06T12:56:47;93675.75;;;12.06;100.00
12775;BME280;6451;42.630;23.382;2024-01-06T12:59:15;93655.72;;;11.88;100.00
12775;BME280;6451;42.630;23.382;2024-01-06T13:01:42;93676.91;;;12.42;100.00
12775;BME280;6451;42.630;23.382;2024-01-06T13:04:09;93665.28;;;12.49;100.00
12775;BME280;6451;42.630;23.382;2024-01-06T13:06:36;93671.38;;;12.76;98.95
12775;BME280;6451;42.630;23.382;2024-01-06T13:09:03;93678.56;;;12.98;96.87
12775;BME280;6451;42.630;23.382;2024-01-06T13:11:34;93673.81;;;13.40;95.79
12775;BME280;6451;42.630;23.382;2024-01-06T13:14:11;93645.56;;;13.07;93.85